Hauptseite
METAR-TAF:

METAR-TAF

Flughäfen :

Manassas Regional Airport (Harry P. Davis Field)

Manassas, Virginia, Vereinigte Staaten

Breite: 38-43N, Länge: 077-31W, Höhe: 59 m

Beobachtung

Neuester Wetterbericht von vor 11 Minuten, um 05:15 UTC
Wind 6 kt aus Nord
Temperatur 4°C
Luftfeuchtigkeit 100%
Luftdruck 1008 hPa
Sichtweite: 8.0 km
Geschlossene Wolkendecke in der Höhe von 400 ft
feuchter Dunst

METAR: KHEF 140515Z AUTO 36006KT 5SM BR OVC004 04/04 A2978 RMK AO2 P0001

Zeit: 00:26 (05:26 UTC)


TAF: fehlend

Wetterbeobachtungen und Prognosen von mehr als 4000 Flughäfen (METAR und TAF Bericht).

Die verfügbaren Stationen werden durch gelbe und rote Markierungen auf der Karte dargestellt.

Führen Sie die Maus auf sie, um den Namen der Station zu sehen.

Darauf klicken, um die Beobachtung von Wetterbeobachtungen und Prognosen zu sehen.

Um die Karte zu ändern : klicken Sie auf den grünen Tasten mit einem schwarzen Kreuz Zum Vergrößern, auf den grünen Button mit einem Gedankenstrich zu verkleinern, oder auf die grünen Pfeile für benachbarte Karten.


METAR-TAF: